Rawalakot Weather



Rawalakot's Current Weather

Temprature 17.812o scattered clouds

scattered clouds

Rain: 0 %

Min Temprature17.812o
Max Temprature17.812o
Humidity47
Wind Speed1.81 m/h
Sun Rise06:11:36
Sun Set17:28:32
Current Time: 18-Oct-2019 17:05:00
Lat/Lon: 33.86, 73.76




Rawalakot's Geo Location



Rawalakot's Weather Forecast

Time Overall Temp Min Temp Max Temp Humidity Wind Speed Rain
18-Oct-2019 (Fri)
20:00:00 light rain 13.360 13.360 13.363 51 1.94 m/h 6 %
23:00:00 light rain 12.370 12.369 12.370 52 2.37 m/h 6 %
19-Oct-2019 (Sat)
02:00:00 scattered clouds 11.350 11.348 11.350 52 2.07 m/h 0 %
05:00:00 broken clouds 11.170 11.168 11.170 51 2.97 m/h 0 %
08:00:00 broken clouds 14.872 14.872 14.872 45 3.09 m/h 0 %
11:00:00 broken clouds 21.040 21.040 21.040 27 2.14 m/h 0 %
14:00:00 broken clouds 22.013 22.013 22.013 26 3.65 m/h 0 %
17:00:00 scattered clouds 17.334 17.334 17.334 39 1.51 m/h 0 %
20:00:00 clear sky 13.131 13.131 13.131 44 1.38 m/h 0 %
23:00:00 clear sky 12.074 12.074 12.074 46 2.11 m/h 0 %
20-Oct-2019 (Sun)
02:00:00 clear sky 11.417 11.417 11.417 46 2.54 m/h 0 %
05:00:00 clear sky 10.808 10.808 10.808 47 2.77 m/h 0 %
08:00:00 clear sky 15.144 15.144 15.144 43 2.56 m/h 0 %
11:00:00 clear sky 22.470 22.470 22.470 23 0.59 m/h 0 %
14:00:00 clear sky 22.773 22.773 22.773 20 2.66 m/h 0 %
17:00:00 scattered clouds 17.511 17.511 17.511 42 1.68 m/h 0 %
20:00:00 overcast clouds 14.233 14.233 14.233 46 1.28 m/h 0 %
23:00:00 overcast clouds 13.309 13.309 13.309 45 2 m/h 0 %
21-Oct-2019 (Mon)
02:00:00 broken clouds 12.026 12.026 12.026 46 2.02 m/h 0 %
05:00:00 scattered clouds 11.317 11.317 11.317 47 2.21 m/h 0 %
08:00:00 clear sky 15.602 15.602 15.602 42 2.16 m/h 0 %
11:00:00 clear sky 22.555 22.555 22.555 24 0.91 m/h 0 %
14:00:00 clear sky 23.118 23.118 23.118 20 1.7 m/h 0 %
17:00:00 clear sky 18.314 18.314 18.314 35 1.69 m/h 0 %
20:00:00 clear sky 13.733 13.733 13.733 41 1.47 m/h 0 %
23:00:00 clear sky 12.534 12.534 12.534 41 2.35 m/h 0 %
22-Oct-2019 (Tue)
02:00:00 clear sky 11.802 11.802 11.802 40 2.65 m/h 0 %
05:00:00 clear sky 11.266 11.266 11.266 40 2.6 m/h 0 %
08:00:00 clear sky 15.401 15.401 15.401 36 2.77 m/h 0 %
11:00:00 clear sky 23.225 23.225 23.225 21 0.36 m/h 0 %
14:00:00 clear sky 23.719 23.719 23.719 20 3.11 m/h 0 %
17:00:00 scattered clouds 18.299 18.299 18.299 37 2.17 m/h 0 %
20:00:00 overcast clouds 14.250 14.250 14.250 43 0.85 m/h 0 %
23:00:00 overcast clouds 13.772 13.772 13.772 43 1.79 m/h 0 %
23-Oct-2019 (Wed)
02:00:00 overcast clouds 13.305 13.305 13.305 41 1.87 m/h 0 %
05:00:00 overcast clouds 13.718 13.718 13.718 38 2.14 m/h 0 %
08:00:00 overcast clouds 16.663 16.663 16.663 37 2.08 m/h 0 %
11:00:00 overcast clouds 21.484 21.484 21.484 21 2.61 m/h 0 %
14:00:00 overcast clouds 22.101 22.101 22.101 21 2.4 m/h 0 %
17:00:00 overcast clouds 17.650 17.650 17.650 38 0.88 m/h 0 %

Famous Cities (61)